createdAt,value
2018-06-18T00:01:41.956Z,13.37
2018-06-18T00:04:10.043Z,13.57
2018-06-18T00:06:37.536Z,12.80
2018-06-18T00:09:08.524Z,13.67
2018-06-18T00:11:36.045Z,12.37
2018-06-18T00:14:03.535Z,12.90
2018-06-18T00:16:31.136Z,14.07
2018-06-18T00:18:58.615Z,16.83
2018-06-18T00:21:26.091Z,13.53
2018-06-18T00:23:53.595Z,14.23
2018-06-18T00:26:21.069Z,14.33
2018-06-18T00:28:48.508Z,13.97
2018-06-18T00:31:16.004Z,14.20
2018-06-18T00:33:43.500Z,13.93
2018-06-18T00:36:10.965Z,13.80
2018-06-18T00:38:38.448Z,13.67
2018-06-18T00:41:06.556Z,15.20
2018-06-18T00:43:34.061Z,13.00
2018-06-18T00:46:01.525Z,13.57
2018-06-18T00:48:29.089Z,13.83
2018-06-18T00:50:56.619Z,14.73
2018-06-18T00:53:24.149Z,13.13
2018-06-18T00:56:03.004Z,14.90
2018-06-18T00:58:30.504Z,13.80
2018-06-18T01:00:57.974Z,14.70
2018-06-18T01:03:25.573Z,14.87
2018-06-18T01:05:53.068Z,14.20
2018-06-18T01:08:20.669Z,19.13
2018-06-18T01:10:48.207Z,13.97
2018-06-18T01:13:15.730Z,14.10
2018-06-18T01:15:43.261Z,14.63
2018-06-18T01:18:10.793Z,14.50
2018-06-18T01:20:38.289Z,14.17
2018-06-18T01:25:15.235Z,14.53
2018-06-18T01:27:42.671Z,14.00
2018-06-18T01:30:10.111Z,13.70
2018-06-18T01:32:37.562Z,14.73
2018-06-18T01:35:06.247Z,14.73
2018-06-18T01:37:33.784Z,13.90
2018-06-18T01:40:01.341Z,15.03
2018-06-18T01:42:28.772Z,14.60
2018-06-18T01:44:56.294Z,14.77
2018-06-18T01:47:23.839Z,13.37
2018-06-18T01:49:51.376Z,12.07
2018-06-18T01:52:18.806Z,14.50
2018-06-18T01:54:46.315Z,14.90
2018-06-18T01:57:13.908Z,14.67
2018-06-18T01:59:41.445Z,13.93
2018-06-18T02:02:08.915Z,15.23
2018-06-18T02:04:36.447Z,18.57
2018-06-18T02:07:03.934Z,12.43
2018-06-18T02:09:31.423Z,14.90
2018-06-18T02:11:58.884Z,15.90
2018-06-18T02:14:26.336Z,15.57
2018-06-18T02:16:53.987Z,13.53
2018-06-18T02:19:21.412Z,14.93
2018-06-18T02:21:48.847Z,15.80
2018-06-18T02:24:16.281Z,14.50
2018-06-18T02:26:43.837Z,14.23
2018-06-18T02:29:17.023Z,14.43
2018-06-18T02:31:50.224Z,15.27
2018-06-18T02:34:23.449Z,16.07
2018-06-18T02:36:56.451Z,16.03
2018-06-18T02:39:23.907Z,13.57
2018-06-18T02:41:51.386Z,14.23
2018-06-18T02:44:19.030Z,15.83
2018-06-18T02:46:47.144Z,15.03
2018-06-18T02:49:14.615Z,15.20
2018-06-18T02:51:42.111Z,16.20
2018-06-18T02:54:09.709Z,14.53
2018-06-18T02:56:46.563Z,16.03
2018-06-18T02:59:14.053Z,17.27
2018-06-18T03:01:41.543Z,15.83
2018-06-18T03:04:08.985Z,14.93
2018-06-18T03:06:36.573Z,16.17
2018-06-18T03:09:06.404Z,15.27
2018-06-18T03:11:33.881Z,14.63
2018-06-18T03:14:01.509Z,15.17
2018-06-18T03:16:28.991Z,20.67
2018-06-18T03:19:02.473Z,15.30
2018-06-18T03:21:35.680Z,18.17
2018-06-18T03:24:15.817Z,14.60
2018-06-18T03:26:48.853Z,15.53
2018-06-18T03:29:21.308Z,14.30
2018-06-18T03:31:49.432Z,15.80
2018-06-18T03:34:16.992Z,16.33
2018-06-18T03:36:45.048Z,17.33
2018-06-18T03:39:13.530Z,18.17
2018-06-18T03:41:43.193Z,16.67
2018-06-18T03:44:14.319Z,20.57
2018-06-18T03:46:41.780Z,15.60
2018-06-18T03:49:09.236Z,17.00
2018-06-18T03:51:36.744Z,13.97
2018-06-18T03:54:04.187Z,18.00
2018-06-18T03:56:31.639Z,15.27
2018-06-18T03:58:59.104Z,15.53
2018-06-18T04:01:40.942Z,17.43
2018-06-18T04:04:14.130Z,18.00
2018-06-18T04:06:48.167Z,14.87
2018-06-18T04:09:21.321Z,15.80
2018-06-18T04:11:54.681Z,16.73
2018-06-18T04:14:22.346Z,20.33
2018-06-18T04:16:49.884Z,17.93
2018-06-18T04:19:17.499Z,15.07
2018-06-18T04:21:45.028Z,17.50
2018-06-18T04:24:12.459Z,18.20
2018-06-18T04:26:40.016Z,17.83
2018-06-18T04:29:07.516Z,19.13
2018-06-18T04:31:35.066Z,14.63
2018-06-18T04:35:06.576Z,15.70
2018-06-18T04:37:34.081Z,14.70
2018-06-18T04:40:01.629Z,18.23
2018-06-18T04:42:34.759Z,16.20
2018-06-18T04:45:07.978Z,14.27
2018-06-18T04:47:41.293Z,18.13
2018-06-18T04:50:14.611Z,14.77
2018-06-18T04:52:42.531Z,13.87
2018-06-18T04:55:10.012Z,14.37
2018-06-18T04:57:37.495Z,11.33
2018-06-18T05:00:25.387Z,13.83
2018-06-18T05:02:52.936Z,13.13
2018-06-18T05:05:20.415Z,14.93
2018-06-18T05:07:51.419Z,14.67
2018-06-18T05:10:24.660Z,15.07
2018-06-18T05:12:52.582Z,11.50
2018-06-18T05:15:22.657Z,17.80
2018-06-18T05:17:50.185Z,12.10
2018-06-18T05:20:17.712Z,14.50
2018-06-18T05:22:45.639Z,12.67
2018-06-18T05:25:13.112Z,12.50
2018-06-18T05:27:40.541Z,15.00
2018-06-18T05:30:12.713Z,16.50
2018-06-18T05:32:40.276Z,13.47
2018-06-18T05:35:09.132Z,14.83
2018-06-18T05:37:46.928Z,11.50
2018-06-18T05:40:14.393Z,11.70
2018-06-18T05:42:42.206Z,11.63
2018-06-18T05:45:09.751Z,12.70
2018-06-18T05:47:37.295Z,14.87
2018-06-18T05:50:04.813Z,16.90
2018-06-18T05:52:32.564Z,11.97
2018-06-18T05:55:00.444Z,12.50
2018-06-18T05:57:28.134Z,12.20
2018-06-18T05:59:55.605Z,13.70
2018-06-18T06:02:23.601Z,13.43
2018-06-18T06:04:51.086Z,12.20
2018-06-18T06:07:18.626Z,14.90
2018-06-18T06:09:46.157Z,13.50
2018-06-18T06:12:14.765Z,16.90
2018-06-18T06:14:42.239Z,15.47
2018-06-18T06:17:10.284Z,12.30
2018-06-18T06:19:37.859Z,13.10
2018-06-18T06:22:05.393Z,10.87
2018-06-18T06:24:32.823Z,13.50
2018-06-18T06:27:00.389Z,12.87
2018-06-18T06:29:27.898Z,13.43
2018-06-18T06:31:55.357Z,13.87
2018-06-18T06:34:22.812Z,13.00
2018-06-18T06:36:50.268Z,12.00
2018-06-18T06:39:17.947Z,12.30
2018-06-18T06:41:49.463Z,11.90
2018-06-18T06:44:16.948Z,14.00
2018-06-18T06:46:44.621Z,13.47
2018-06-18T06:49:12.176Z,14.23
2018-06-18T06:51:39.623Z,14.97
2018-06-18T06:54:07.188Z,15.67
2018-06-18T06:56:34.665Z,15.97
2018-06-18T06:59:02.127Z,15.27
2018-06-18T07:01:29.931Z,14.87
2018-06-18T07:03:57.374Z,14.93
2018-06-18T07:06:24.832Z,13.70
2018-06-18T07:08:52.339Z,14.80
2018-06-18T07:11:19.790Z,15.33
2018-06-18T07:13:47.368Z,14.77
2018-06-18T07:16:14.847Z,17.00
2018-06-18T07:18:42.376Z,16.03
2018-06-18T07:21:10.446Z,16.50
2018-06-18T07:23:38.030Z,14.47
2018-06-18T07:26:05.836Z,15.43
2018-06-18T07:28:33.342Z,16.50
2018-06-18T07:31:01.000Z,12.10
2018-06-18T07:33:28.449Z,12.70
2018-06-18T07:35:55.944Z,13.50
2018-06-18T07:38:23.434Z,17.90
2018-06-18T07:40:51.459Z,11.70
2018-06-18T07:43:19.179Z,11.73
2018-06-18T07:45:47.900Z,12.43
2018-06-18T07:48:16.250Z,11.93
2018-06-18T07:50:44.308Z,12.30
2018-06-18T07:53:11.775Z,13.17
2018-06-18T07:55:41.061Z,12.93
2018-06-18T07:58:08.639Z,12.53
2018-06-18T08:00:36.217Z,13.57
2018-06-18T08:03:03.976Z,14.43
2018-06-18T08:05:31.442Z,12.47
2018-06-18T08:08:00.049Z,14.00
2018-06-18T08:10:27.536Z,13.67
2018-06-18T08:12:55.624Z,13.20
2018-06-18T08:15:23.257Z,13.90
2018-06-18T08:17:50.821Z,13.13
2018-06-18T08:20:18.906Z,12.83
2018-06-18T08:22:46.480Z,12.13
2018-06-18T08:25:14.069Z,13.33
2018-06-18T08:27:41.648Z,12.37
2018-06-18T08:30:09.191Z,11.90
2018-06-18T08:32:36.714Z,11.50
2018-06-18T08:35:04.461Z,10.33
2018-06-18T08:37:31.952Z,12.47
2018-06-18T08:39:59.400Z,11.60
2018-06-18T08:42:26.862Z,12.47
2018-06-18T08:44:54.513Z,11.53
2018-06-18T08:47:22.052Z,11.07
2018-06-18T08:49:55.345Z,11.40
2018-06-18T08:52:28.356Z,11.50
2018-06-18T08:55:02.020Z,12.80
2018-06-18T08:57:35.249Z,16.47
2018-06-18T09:00:08.780Z,14.17
2018-06-18T09:02:36.299Z,13.90
2018-06-18T09:05:09.837Z,15.43
2018-06-18T09:07:43.016Z,13.43
2018-06-18T09:10:10.581Z,12.37
2018-06-18T09:12:38.067Z,13.43
2018-06-18T09:15:05.828Z,13.20
2018-06-18T09:17:33.564Z,13.03
2018-06-18T09:20:01.073Z,13.40
2018-06-18T09:22:28.533Z,13.40
2018-06-18T09:24:56.064Z,14.70
2018-06-18T09:27:23.597Z,13.10
2018-06-18T09:29:56.995Z,13.00
2018-06-18T09:32:24.697Z,12.97
2018-06-18T09:34:51.960Z,14.10
2018-06-18T09:37:19.583Z,12.77
2018-06-18T09:39:47.031Z,12.77
2018-06-18T09:42:14.483Z,12.87
2018-06-18T09:44:41.948Z,14.00
2018-06-18T09:47:09.603Z,12.20
2018-06-18T09:49:42.689Z,13.87
2018-06-18T09:52:15.899Z,13.03
2018-06-18T09:54:49.197Z,11.50
2018-06-18T09:57:25.191Z,13.33
2018-06-18T10:00:00.811Z,12.50
2018-06-18T10:02:28.696Z,12.57
2018-06-18T10:04:57.494Z,12.80
2018-06-18T10:07:25.176Z,12.73
2018-06-18T10:09:52.787Z,12.80
2018-06-18T10:12:20.687Z,12.63
2018-06-18T10:14:48.160Z,12.07
2018-06-18T10:17:15.947Z,13.57
2018-06-18T10:19:43.443Z,11.80
2018-06-18T10:22:10.915Z,11.43
2018-06-18T10:24:38.381Z,10.27
2018-06-18T10:27:05.939Z,12.40
2018-06-18T10:29:33.424Z,14.30
2018-06-18T10:32:00.987Z,12.80
2018-06-18T10:34:34.301Z,13.60
2018-06-18T10:37:07.600Z,14.07
2018-06-18T10:39:40.875Z,12.13
2018-06-18T10:42:14.034Z,13.30
2018-06-18T10:44:41.510Z,12.60
2018-06-18T10:47:08.961Z,12.80
2018-06-18T10:49:36.540Z,12.43
2018-06-18T10:52:04.013Z,13.53
2018-06-18T10:54:31.724Z,14.40
2018-06-18T10:56:59.285Z,13.00
2018-06-18T10:59:26.711Z,13.70
2018-06-18T11:01:54.211Z,12.90
2018-06-18T11:04:27.344Z,13.10
2018-06-18T11:06:54.843Z,11.10
2018-06-18T11:09:22.355Z,12.40
2018-06-18T11:11:51.607Z,11.90
2018-06-18T11:14:19.074Z,11.00
2018-06-18T11:16:53.466Z,12.30
2018-06-18T11:19:26.585Z,11.20
2018-06-18T11:21:59.615Z,12.77
2018-06-18T11:24:32.936Z,10.83
2018-06-18T11:27:00.488Z,11.20
2018-06-18T11:29:28.377Z,9.40
2018-06-18T11:31:55.835Z,9.43
2018-06-18T11:34:23.835Z,8.70
2018-06-18T11:36:51.395Z,9.00
2018-06-18T11:39:18.906Z,8.53
2018-06-18T11:41:46.426Z,8.43
2018-06-18T11:44:14.068Z,8.80
2018-06-18T11:46:41.528Z,8.90
2018-06-18T11:49:09.073Z,7.70
2018-06-18T11:51:36.522Z,9.20
2018-06-18T11:54:04.193Z,8.63
2018-06-18T11:56:32.113Z,8.63
2018-06-18T11:59:05.368Z,9.03
2018-06-18T12:01:38.401Z,10.90
2018-06-18T12:04:11.644Z,7.00
2018-06-18T12:06:45.371Z,6.90
2018-06-18T12:09:18.530Z,9.13
2018-06-18T12:11:46.601Z,7.00
2018-06-18T12:14:14.588Z,8.10
2018-06-18T12:16:42.224Z,9.30
2018-06-18T12:19:09.657Z,7.17
2018-06-18T12:21:37.137Z,7.87
2018-06-18T12:24:04.729Z,9.23
2018-06-18T12:26:32.514Z,7.20
2018-06-18T12:28:59.971Z,7.23
2018-06-18T12:31:27.632Z,8.07
2018-06-18T12:33:55.153Z,11.00
2018-06-18T12:36:22.697Z,7.27
2018-06-18T12:38:50.411Z,8.87
2018-06-18T12:41:18.707Z,8.40
2018-06-18T12:43:49.898Z,7.83
2018-06-18T12:46:23.102Z,7.77
2018-06-18T12:48:56.331Z,7.93
2018-06-18T12:51:29.520Z,7.23
2018-06-18T12:54:02.728Z,7.20
2018-06-18T12:56:36.381Z,7.47
2018-06-18T12:59:03.923Z,6.63
2018-06-18T13:01:33.967Z,7.87
2018-06-18T13:04:03.003Z,6.77
2018-06-18T13:06:30.479Z,7.73
2018-06-18T13:08:58.073Z,6.90
2018-06-18T13:11:25.564Z,7.43
2018-06-18T13:13:53.090Z,7.40
2018-06-18T13:16:20.557Z,8.03
2018-06-18T13:18:48.043Z,7.57
2018-06-18T13:21:15.572Z,7.13
2018-06-18T13:23:43.079Z,6.93
2018-06-18T13:26:10.578Z,7.57
2018-06-18T13:28:38.043Z,7.03
2018-06-18T13:31:05.568Z,8.27
2018-06-18T13:33:33.010Z,7.80
2018-06-18T13:36:00.466Z,6.67
2018-06-18T13:38:33.640Z,7.40
2018-06-18T13:41:06.873Z,7.00
2018-06-18T13:43:40.091Z,7.40
2018-06-18T13:46:13.308Z,7.37
2018-06-18T13:48:48.479Z,6.80
2018-06-18T13:51:16.145Z,7.47
2018-06-18T13:53:43.605Z,7.13
2018-06-18T13:56:11.070Z,7.00
2018-06-18T13:58:38.593Z,6.90
2018-06-18T14:01:07.263Z,8.73
2018-06-18T14:03:34.814Z,6.10
2018-06-18T14:06:02.300Z,7.10
2018-06-18T14:08:29.780Z,6.53
2018-06-18T14:10:57.260Z,7.10
2018-06-18T14:13:24.876Z,8.63
2018-06-18T14:15:52.430Z,6.47
2018-06-18T14:18:19.940Z,6.90
2018-06-18T14:20:47.468Z,6.30
2018-06-18T14:23:14.948Z,8.27
2018-06-18T14:25:42.392Z,6.10
2018-06-18T14:28:09.880Z,6.83
2018-06-18T14:30:43.058Z,6.50
2018-06-18T14:33:16.206Z,8.87
2018-06-18T14:35:49.483Z,6.27
2018-06-18T14:38:22.773Z,6.90
2018-06-18T14:40:50.322Z,7.00
2018-06-18T14:43:17.984Z,6.30
2018-06-18T14:45:45.783Z,8.13
2018-06-18T14:48:13.191Z,7.33
2018-06-18T14:50:41.119Z,7.43
2018-06-18T14:53:08.617Z,6.33
2018-06-18T14:55:36.103Z,6.70
2018-06-18T14:58:03.592Z,6.10
2018-06-18T15:00:32.729Z,6.80
2018-06-18T15:03:00.309Z,7.17
2018-06-18T15:05:37.879Z,7.43
2018-06-18T15:08:05.422Z,9.13
2018-06-18T15:10:39.000Z,9.03
2018-06-18T15:13:08.217Z,9.43
2018-06-18T15:15:41.394Z,10.93
2018-06-18T15:18:09.060Z,12.27
2018-06-18T15:20:36.663Z,12.67
2018-06-18T15:23:05.298Z,13.37
2018-06-18T15:25:38.592Z,13.60
2018-06-18T15:28:06.084Z,13.60
2018-06-18T15:30:33.559Z,13.67
2018-06-18T15:33:01.379Z,13.37
2018-06-18T15:35:28.912Z,14.03
2018-06-18T15:37:56.734Z,13.60
2018-06-18T15:40:24.189Z,13.93
2018-06-18T15:42:52.160Z,13.23
2018-06-18T15:45:19.638Z,15.13
2018-06-18T15:47:47.116Z,14.93
2018-06-18T15:50:14.624Z,13.67
2018-06-18T15:52:42.213Z,14.10
2018-06-18T15:55:10.021Z,11.97
2018-06-18T15:57:37.492Z,15.67
2018-06-18T16:00:05.441Z,14.87
2018-06-18T16:02:32.909Z,13.70
2018-06-18T16:05:00.707Z,14.20
2018-06-18T16:07:28.308Z,13.77
2018-06-18T16:09:56.146Z,14.20
2018-06-18T16:12:24.212Z,12.97
2018-06-18T16:14:51.798Z,12.80
2018-06-18T16:17:20.872Z,12.80
2018-06-18T16:19:48.505Z,12.67
2018-06-18T16:22:16.350Z,13.97
2018-06-18T16:24:44.136Z,13.30
2018-06-18T16:27:11.729Z,12.90
2018-06-18T16:29:39.404Z,11.47
2018-06-18T16:32:07.020Z,12.43
2018-06-18T16:34:36.037Z,12.57
2018-06-18T16:37:03.529Z,12.23
2018-06-18T16:39:32.032Z,11.60
2018-06-18T16:42:00.926Z,11.53
2018-06-18T16:44:28.984Z,9.60
2018-06-18T16:46:56.595Z,8.40
2018-06-18T16:49:24.142Z,9.83
2018-06-18T16:51:51.796Z,10.23
2018-06-18T16:54:19.291Z,8.27
2018-06-18T16:56:46.868Z,8.40
2018-06-18T16:59:14.347Z,8.20
2018-06-18T17:01:41.964Z,9.10
2018-06-18T17:04:09.441Z,8.43
2018-06-18T17:06:36.895Z,9.00
2018-06-18T17:09:07.109Z,9.20
2018-06-18T17:11:34.535Z,8.60
2018-06-18T17:14:02.360Z,9.50
2018-06-18T17:16:29.789Z,9.00
2018-06-18T17:18:57.344Z,9.57
2018-06-18T17:21:24.839Z,8.67
2018-06-18T17:23:53.278Z,9.30
2018-06-18T17:26:20.729Z,9.33
2018-06-18T17:28:48.194Z,8.63
2018-06-18T17:31:15.621Z,10.13
2018-06-18T17:33:43.078Z,9.70
2018-06-18T17:36:10.977Z,9.70
2018-06-18T17:38:38.508Z,9.43
2018-06-18T17:41:05.947Z,9.03
2018-06-18T17:43:33.428Z,9.10
2018-06-18T17:46:00.956Z,8.37
2018-06-18T17:48:28.392Z,8.03
2018-06-18T17:50:55.929Z,8.80
2018-06-18T17:53:23.423Z,7.80
2018-06-18T17:55:50.988Z,8.90
2018-06-18T17:58:18.711Z,7.67
2018-06-18T18:00:46.245Z,7.63
2018-06-18T18:03:13.894Z,8.23
2018-06-18T18:05:41.513Z,7.27
2018-06-18T18:08:09.140Z,7.57
2018-06-18T18:10:36.635Z,7.80
2018-06-18T18:13:04.265Z,7.23
2018-06-18T18:15:31.756Z,7.17
2018-06-18T18:18:00.136Z,7.07
2018-06-18T18:20:27.633Z,7.57
2018-06-18T18:22:55.459Z,7.53
2018-06-18T18:25:23.052Z,7.40
2018-06-18T18:27:51.251Z,7.30
2018-06-18T18:30:18.861Z,7.30
2018-06-18T18:32:46.316Z,7.53
2018-06-18T18:35:13.962Z,7.60
2018-06-18T18:37:41.455Z,8.00
2018-06-18T18:40:09.089Z,8.10
2018-06-18T18:42:36.578Z,6.53
2018-06-18T18:45:04.112Z,6.90
2018-06-18T18:47:31.608Z,6.73
2018-06-18T18:49:59.179Z,5.87
2018-06-18T18:52:26.788Z,7.60
2018-06-18T18:55:31.295Z,6.23
2018-06-18T18:58:11.245Z,6.87
2018-06-18T19:00:39.068Z,7.33
2018-06-18T19:03:06.604Z,6.70
2018-06-18T19:05:34.080Z,6.03
2018-06-18T19:08:01.764Z,6.23
2018-06-18T19:10:31.576Z,7.73
2018-06-18T19:13:04.680Z,5.90
2018-06-18T19:15:32.177Z,6.67
2018-06-18T19:17:59.673Z,6.87
2018-06-18T19:20:33.636Z,6.90
2018-06-18T19:23:01.300Z,7.30
2018-06-18T19:25:29.452Z,6.83
2018-06-18T19:27:57.046Z,7.40
2018-06-18T19:30:24.542Z,6.60
2018-06-18T19:32:54.866Z,7.90
2018-06-18T19:35:22.503Z,6.50
2018-06-18T19:37:50.177Z,7.93
2018-06-18T19:40:17.722Z,7.27
2018-06-18T19:42:45.346Z,7.53
2018-06-18T19:45:14.699Z,7.73
2018-06-18T19:47:49.017Z,8.40
2018-06-18T19:50:16.937Z,6.77
2018-06-18T19:52:44.452Z,6.87
2018-06-18T19:55:14.342Z,7.93
2018-06-18T19:57:41.884Z,7.60
2018-06-18T20:00:09.512Z,7.77
2018-06-18T20:02:37.037Z,7.20
2018-06-18T20:05:11.700Z,7.90
2018-06-18T20:07:46.828Z,8.00
2018-06-18T20:10:14.521Z,7.97
2018-06-18T20:12:42.088Z,9.20
2018-06-18T20:15:11.344Z,7.57
2018-06-18T20:17:38.984Z,8.60
2018-06-18T20:20:06.564Z,8.50
2018-06-18T20:22:34.123Z,9.10
2018-06-18T20:25:01.771Z,8.70
2018-06-18T20:27:29.823Z,7.93
2018-06-18T20:29:57.356Z,10.73
2018-06-18T20:32:24.816Z,10.37
2018-06-18T20:34:52.375Z,9.90
2018-06-18T20:37:20.085Z,9.43
2018-06-18T20:39:47.600Z,9.80
2018-06-18T20:42:15.095Z,11.30
2018-06-18T20:44:42.740Z,10.27
2018-06-18T20:47:10.301Z,9.43
2018-06-18T20:49:37.783Z,10.00
2018-06-18T20:52:05.653Z,10.40
2018-06-18T20:54:33.183Z,11.60
2018-06-18T20:57:00.660Z,11.43
2018-06-18T20:59:28.224Z,12.80
2018-06-18T21:01:55.725Z,11.47
2018-06-18T21:04:23.263Z,11.20
2018-06-18T21:06:51.028Z,12.70
2018-06-18T21:09:18.507Z,12.37
2018-06-18T21:11:46.109Z,12.50
2018-06-18T21:14:13.680Z,12.07
2018-06-18T21:16:43.412Z,10.83
2018-06-18T21:19:10.984Z,12.87
2018-06-18T21:21:38.488Z,14.10
2018-06-18T21:24:06.388Z,14.50
2018-06-18T21:26:33.887Z,14.07
2018-06-18T21:29:01.448Z,14.33
2018-06-18T21:31:28.966Z,13.37
2018-06-18T21:33:57.876Z,15.43
2018-06-18T21:36:25.353Z,14.87
2018-06-18T21:38:52.819Z,15.17
2018-06-18T21:41:20.309Z,14.90
2018-06-18T21:43:48.344Z,17.10
2018-06-18T21:46:15.921Z,16.23
2018-06-18T21:48:43.429Z,15.13
2018-06-18T21:51:10.904Z,15.93
2018-06-18T21:53:38.514Z,14.50
2018-06-18T21:56:09.002Z,14.60
2018-06-18T21:58:36.579Z,16.97
2018-06-18T22:01:04.320Z,17.50
2018-06-18T22:03:32.519Z,18.53
2018-06-18T22:06:00.204Z,15.30
2018-06-18T22:08:29.008Z,15.90
2018-06-18T22:10:56.724Z,17.63
2018-06-18T22:13:24.557Z,15.80
2018-06-18T22:15:52.228Z,16.90
2018-06-18T22:18:19.912Z,16.60
2018-06-18T22:20:47.400Z,16.80
2018-06-18T22:23:15.411Z,17.77
2018-06-18T22:25:42.871Z,17.83
2018-06-18T22:28:14.649Z,18.47
2018-06-18T22:30:42.267Z,17.40
2018-06-18T22:33:09.893Z,18.80
2018-06-18T22:35:37.355Z,15.77
2018-06-18T22:38:05.846Z,17.90
2018-06-18T22:40:33.496Z,18.53
2018-06-18T22:43:01.118Z,17.73
2018-06-18T22:45:28.759Z,18.50
2018-06-18T22:47:56.653Z,18.13
2018-06-18T22:50:24.231Z,17.63
2018-06-18T22:52:51.789Z,19.20
2018-06-18T22:55:19.314Z,19.37
2018-06-18T22:57:46.876Z,18.20
2018-06-18T23:00:14.364Z,19.33
2018-06-18T23:02:41.852Z,17.03
2018-06-18T23:05:09.372Z,16.83
2018-06-18T23:07:36.866Z,17.20
2018-06-18T23:10:04.390Z,16.90
2018-06-18T23:12:35.035Z,17.00
2018-06-18T23:15:02.796Z,17.07
2018-06-18T23:17:30.408Z,19.80
2018-06-18T23:19:58.034Z,18.27
2018-06-18T23:22:25.509Z,19.47
2018-06-18T23:24:53.128Z,19.83
2018-06-18T23:27:20.866Z,18.63
2018-06-18T23:29:48.336Z,16.97
2018-06-18T23:32:15.792Z,17.80
2018-06-18T23:34:43.268Z,20.13
2018-06-18T23:37:10.807Z,18.13
2018-06-18T23:39:38.288Z,18.47
2018-06-18T23:42:05.760Z,17.90
2018-06-18T23:44:33.292Z,16.93
2018-06-18T23:47:00.910Z,19.10
2018-06-18T23:49:28.656Z,19.83
2018-06-18T23:51:56.420Z,19.13
2018-06-18T23:54:23.998Z,19.90
2018-06-18T23:56:51.828Z,19.50
2018-06-18T23:59:19.419Z,20.93
